Weather at Ross Heliport

Public forecast

Using degrees Fahrenheit for public forecast. Weather courtesy of forecast.io.

Closest aviation weather report (METAR) to Ross Heliport

Closest report is Niagara Falls International Airport, 0.9 nm (1.6 km) SSW.

2024/05/30 18:53 (retrieved 49 minutes ago)

KIAG 301853Z 36008G18KT 10SM CLR 18/01 A3014 RMK AO2 PK WND 04026/1807 SLP207 T01830011

Closest aviation forecast (TAF) to Ross Heliport

Closest forecast is Niagara Falls International Airport, 0.9 nm (1.6 km) SSW.

2024/05/30 18:30 (retrieved 1 hour ago)

TAF KIAG 301729Z 3018/3118 34012KT P6SM SKC FM302200 33007KT P6SM SKC FM310200 25004KT P6SM SKC FM311600 28006KT P6SM SKC